sensor_id;sensor_type;location;lat;lon;timestamp;P1;durP1;ratioP1;P2;durP2;ratioP2
20251;SDS011;10284;58.364;15.550;2022-11-04T00:01:36;22.42;;;8.00;;
20251;SDS011;10284;58.364;15.550;2022-11-04T00:04:03;16.05;;;7.38;;
20251;SDS011;10284;58.364;15.550;2022-11-04T00:06:29;20.00;;;7.70;;
20251;SDS011;10284;58.364;15.550;2022-11-04T00:08:55;16.65;;;7.80;;
20251;SDS011;10284;58.364;15.550;2022-11-04T00:11:22;20.15;;;7.53;;
20251;SDS011;10284;58.364;15.550;2022-11-04T00:14:06;13.48;;;7.05;;
20251;SDS011;10284;58.364;15.550;2022-11-04T00:16:33;17.67;;;6.88;;
20251;SDS011;10284;58.364;15.550;2022-11-04T00:19:18;16.23;;;7.20;;
20251;SDS011;10284;58.364;15.550;2022-11-04T00:21:43;22.13;;;7.88;;
20251;SDS011;10284;58.364;15.550;2022-11-04T00:24:27;17.60;;;7.53;;
20251;SDS011;10284;58.364;15.550;2022-11-04T00:27:14;17.63;;;7.40;;
20251;SDS011;10284;58.364;15.550;2022-11-04T00:30:00;15.00;;;7.00;;
20251;SDS011;10284;58.364;15.550;2022-11-04T00:32:25;20.67;;;7.80;;
20251;SDS011;10284;58.364;15.550;2022-11-04T00:35:10;15.32;;;7.63;;
20251;SDS011;10284;58.364;15.550;2022-11-04T00:37:37;18.45;;;7.63;;
20251;SDS011;10284;58.364;15.550;2022-11-04T00:40:07;19.42;;;7.80;;
20251;SDS011;10284;58.364;15.550;2022-11-04T00:42:34;21.58;;;8.25;;
20251;SDS011;10284;58.364;15.550;2022-11-04T00:44:59;15.73;;;7.85;;
20251;SDS011;10284;58.364;15.550;2022-11-04T00:47:25;20.13;;;8.45;;
20251;SDS011;10284;58.364;15.550;2022-11-04T00:49:50;17.13;;;7.63;;
20251;SDS011;10284;58.364;15.550;2022-11-04T00:52:16;16.05;;;7.45;;
20251;SDS011;10284;58.364;15.550;2022-11-04T00:54:41;20.05;;;8.10;;
20251;SDS011;10284;58.364;15.550;2022-11-04T00:57:10;13.75;;;6.45;;
20251;SDS011;10284;58.364;15.550;2022-11-04T00:59:37;18.63;;;7.18;;
20251;SDS011;10284;58.364;15.550;2022-11-04T01:02:03;15.98;;;7.32;;
20251;SDS011;10284;58.364;15.550;2022-11-04T01:04:29;17.40;;;7.63;;
20251;SDS011;10284;58.364;15.550;2022-11-04T01:06:55;14.80;;;7.82;;
20251;SDS011;10284;58.364;15.550;2022-11-04T01:09:20;14.13;;;7.57;;
20251;SDS011;10284;58.364;15.550;2022-11-04T01:11:46;19.20;;;8.20;;
20251;SDS011;10284;58.364;15.550;2022-11-04T01:14:11;20.65;;;8.23;;
20251;SDS011;10284;58.364;15.550;2022-11-04T01:16:37;16.65;;;7.65;;
20251;SDS011;10284;58.364;15.550;2022-11-04T01:19:03;16.60;;;7.10;;
20251;SDS011;10284;58.364;15.550;2022-11-04T01:21:28;20.73;;;7.70;;
20251;SDS011;10284;58.364;15.550;2022-11-04T01:23:54;21.10;;;7.63;;
20251;SDS011;10284;58.364;15.550;2022-11-04T01:26:20;16.25;;;7.25;;
20251;SDS011;10284;58.364;15.550;2022-11-04T01:28:47;19.77;;;7.32;;
20251;SDS011;10284;58.364;15.550;2022-11-04T01:31:14;15.95;;;7.82;;
20251;SDS011;10284;58.364;15.550;2022-11-04T01:33:41;15.38;;;7.35;;
20251;SDS011;10284;58.364;15.550;2022-11-04T01:36:07;18.27;;;7.20;;
20251;SDS011;10284;58.364;15.550;2022-11-04T01:38:33;18.27;;;7.93;;
20251;SDS011;10284;58.364;15.550;2022-11-04T01:40:59;15.65;;;7.50;;
20251;SDS011;10284;58.364;15.550;2022-11-04T01:46:39;22.13;;;7.15;;
20251;SDS011;10284;58.364;15.550;2022-11-04T01:51:50;13.77;;;6.63;;
20251;SDS011;10284;58.364;15.550;2022-11-04T01:54:18;17.00;;;7.20;;
20251;SDS011;10284;58.364;15.550;2022-11-04T01:56:45;24.92;;;7.55;;
20251;SDS011;10284;58.364;15.550;2022-11-04T01:59:14;17.38;;;7.47;;
20251;SDS011;10284;58.364;15.550;2022-11-04T02:01:45;14.15;;;7.15;;
20251;SDS011;10284;58.364;15.550;2022-11-04T02:04:11;14.40;;;6.60;;
20251;SDS011;10284;58.364;15.550;2022-11-04T02:06:50;17.55;;;7.50;;
20251;SDS011;10284;58.364;15.550;2022-11-04T02:09:17;13.90;;;7.03;;
20251;SDS011;10284;58.364;15.550;2022-11-04T02:11:43;16.48;;;7.28;;
20251;SDS011;10284;58.364;15.550;2022-11-04T02:14:27;12.45;;;6.57;;
20251;SDS011;10284;58.364;15.550;2022-11-04T02:16:54;16.17;;;6.95;;
20251;SDS011;10284;58.364;15.550;2022-11-04T02:30:45;11.93;;;5.55;;
20251;SDS011;10284;58.364;15.550;2022-11-04T02:38:18;17.17;;;6.78;;
20251;SDS011;10284;58.364;15.550;2022-11-04T02:43:25;17.63;;;6.47;;
20251;SDS011;10284;58.364;15.550;2022-11-04T02:46:04;14.20;;;6.20;;
20251;SDS011;10284;58.364;15.550;2022-11-04T02:48:37;12.75;;;6.05;;
20251;SDS011;10284;58.364;15.550;2022-11-04T02:51:47;15.70;;;6.60;;
20251;SDS011;10284;58.364;15.550;2022-11-04T02:53:59;16.75;;;6.82;;
20251;SDS011;10284;58.364;15.550;2022-11-04T02:56:34;19.65;;;7.63;;
20251;SDS011;10284;58.364;15.550;2022-11-04T02:59:03;14.77;;;6.25;;
20251;SDS011;10284;58.364;15.550;2022-11-04T03:01:31;14.50;;;6.40;;
20251;SDS011;10284;58.364;15.550;2022-11-04T03:04:00;19.27;;;7.05;;
20251;SDS011;10284;58.364;15.550;2022-11-04T03:06:28;18.50;;;7.15;;
20251;SDS011;10284;58.364;15.550;2022-11-04T03:08:55;14.77;;;6.70;;
20251;SDS011;10284;58.364;15.550;2022-11-04T03:11:24;16.55;;;7.47;;
20251;SDS011;10284;58.364;15.550;2022-11-04T03:13:56;12.93;;;6.68;;
20251;SDS011;10284;58.364;15.550;2022-11-04T03:16:27;16.40;;;6.78;;
20251;SDS011;10284;58.364;15.550;2022-11-04T03:21:26;11.98;;;6.18;;
20251;SDS011;10284;58.364;15.550;2022-11-04T03:23:53;13.93;;;7.47;;
20251;SDS011;10284;58.364;15.550;2022-11-04T03:26:29;17.80;;;8.45;;
20251;SDS011;10284;58.364;15.550;2022-11-04T03:29:02;15.43;;;7.53;;
20251;SDS011;10284;58.364;15.550;2022-11-04T03:34:25;16.45;;;7.93;;
20251;SDS011;10284;58.364;15.550;2022-11-04T03:36:51;14.30;;;7.68;;
20251;SDS011;10284;58.364;15.550;2022-11-04T03:39:16;16.33;;;7.30;;
20251;SDS011;10284;58.364;15.550;2022-11-04T03:41:52;20.60;;;7.70;;
20251;SDS011;10284;58.364;15.550;2022-11-04T03:44:19;15.07;;;7.85;;
20251;SDS011;10284;58.364;15.550;2022-11-04T03:46:45;13.40;;;7.13;;
20251;SDS011;10284;58.364;15.550;2022-11-04T03:49:10;19.13;;;8.48;;
20251;SDS011;10284;58.364;15.550;2022-11-04T03:51:36;21.02;;;8.05;;
20251;SDS011;10284;58.364;15.550;2022-11-04T03:54:02;20.48;;;8.43;;
20251;SDS011;10284;58.364;15.550;2022-11-04T03:56:32;22.27;;;8.65;;
20251;SDS011;10284;58.364;15.550;2022-11-04T04:01:56;25.20;;;9.18;;
20251;SDS011;10284;58.364;15.550;2022-11-04T04:04:35;20.98;;;8.43;;
20251;SDS011;10284;58.364;15.550;2022-11-04T04:07:11;15.98;;;8.38;;
20251;SDS011;10284;58.364;15.550;2022-11-04T04:09:44;18.20;;;8.25;;
20251;SDS011;10284;58.364;15.550;2022-11-04T04:14:50;16.83;;;7.80;;
20251;SDS011;10284;58.364;15.550;2022-11-04T04:17:22;20.73;;;7.82;;
20251;SDS011;10284;58.364;15.550;2022-11-04T04:19:56;19.20;;;8.27;;
20251;SDS011;10284;58.364;15.550;2022-11-04T04:22:24;19.50;;;8.60;;
20251;SDS011;10284;58.364;15.550;2022-11-04T04:24:56;16.58;;;7.55;;
20251;SDS011;10284;58.364;15.550;2022-11-04T04:27:42;20.58;;;7.60;;
20251;SDS011;10284;58.364;15.550;2022-11-04T04:30:10;17.88;;;7.70;;
20251;SDS011;10284;58.364;15.550;2022-11-04T04:35:26;17.30;;;7.95;;
20251;SDS011;10284;58.364;15.550;2022-11-04T04:41:10;18.23;;;8.27;;
20251;SDS011;10284;58.364;15.550;2022-11-04T04:44:25;16.98;;;6.90;;
20251;SDS011;10284;58.364;15.550;2022-11-04T04:47:11;17.85;;;6.97;;
20251;SDS011;10284;58.364;15.550;2022-11-04T04:49:56;19.67;;;8.68;;
20251;SDS011;10284;58.364;15.550;2022-11-04T04:52:30;19.92;;;7.72;;
20251;SDS011;10284;58.364;15.550;2022-11-04T04:54:57;21.95;;;8.10;;
20251;SDS011;10284;58.364;15.550;2022-11-04T04:57:22;19.55;;;7.32;;
20251;SDS011;10284;58.364;15.550;2022-11-04T04:59:47;14.70;;;7.38;;
20251;SDS011;10284;58.364;15.550;2022-11-04T05:02:13;18.63;;;8.25;;
20251;SDS011;10284;58.364;15.550;2022-11-04T05:04:39;22.85;;;8.00;;
20251;SDS011;10284;58.364;15.550;2022-11-04T05:07:04;16.88;;;7.93;;
20251;SDS011;10284;58.364;15.550;2022-11-04T05:09:31;21.27;;;8.43;;
20251;SDS011;10284;58.364;15.550;2022-11-04T05:11:57;14.82;;;7.45;;
20251;SDS011;10284;58.364;15.550;2022-11-04T05:14:22;21.48;;;7.90;;
20251;SDS011;10284;58.364;15.550;2022-11-04T05:16:48;19.75;;;8.70;;
20251;SDS011;10284;58.364;15.550;2022-11-04T05:19:13;17.17;;;8.10;;
20251;SDS011;10284;58.364;15.550;2022-11-04T05:21:38;16.50;;;8.45;;
20251;SDS011;10284;58.364;15.550;2022-11-04T05:24:04;23.67;;;7.93;;
20251;SDS011;10284;58.364;15.550;2022-11-04T05:26:29;20.25;;;8.07;;
20251;SDS011;10284;58.364;15.550;2022-11-04T05:28:55;16.40;;;7.88;;
20251;SDS011;10284;58.364;15.550;2022-11-04T05:31:20;22.17;;;8.18;;
20251;SDS011;10284;58.364;15.550;2022-11-04T05:33:46;20.13;;;8.32;;
20251;SDS011;10284;58.364;15.550;2022-11-04T05:36:12;22.83;;;8.32;;
20251;SDS011;10284;58.364;15.550;2022-11-04T05:38:39;12.75;;;7.53;;
20251;SDS011;10284;58.364;15.550;2022-11-04T05:41:05;20.55;;;8.30;;
20251;SDS011;10284;58.364;15.550;2022-11-04T05:43:32;17.27;;;8.05;;
20251;SDS011;10284;58.364;15.550;2022-11-04T05:45:58;17.00;;;7.90;;
20251;SDS011;10284;58.364;15.550;2022-11-04T05:48:24;16.33;;;7.13;;
20251;SDS011;10284;58.364;15.550;2022-11-04T05:50:49;17.30;;;8.20;;
20251;SDS011;10284;58.364;15.550;2022-11-04T05:53:14;14.45;;;7.18;;
20251;SDS011;10284;58.364;15.550;2022-11-04T05:55:40;17.33;;;7.28;;
20251;SDS011;10284;58.364;15.550;2022-11-04T05:58:05;18.33;;;7.90;;
20251;SDS011;10284;58.364;15.550;2022-11-04T06:00:31;20.10;;;7.47;;
20251;SDS011;10284;58.364;15.550;2022-11-04T06:02:56;21.17;;;7.47;;
20251;SDS011;10284;58.364;15.550;2022-11-04T06:05:22;17.83;;;7.30;;
20251;SDS011;10284;58.364;15.550;2022-11-04T06:07:48;19.60;;;7.38;;
20251;SDS011;10284;58.364;15.550;2022-11-04T06:10:13;20.77;;;6.90;;
20251;SDS011;10284;58.364;15.550;2022-11-04T06:12:39;16.15;;;6.78;;
20251;SDS011;10284;58.364;15.550;2022-11-04T06:15:04;15.48;;;6.88;;
20251;SDS011;10284;58.364;15.550;2022-11-04T06:17:30;15.13;;;6.40;;
20251;SDS011;10284;58.364;15.550;2022-11-04T06:19:56;14.13;;;6.15;;
20251;SDS011;10284;58.364;15.550;2022-11-04T06:22:21;15.63;;;6.05;;
20251;SDS011;10284;58.364;15.550;2022-11-04T06:24:47;17.88;;;6.03;;
20251;SDS011;10284;58.364;15.550;2022-11-04T06:27:12;13.75;;;5.70;;
20251;SDS011;10284;58.364;15.550;2022-11-04T06:29:38;15.93;;;7.00;;
20251;SDS011;10284;58.364;15.550;2022-11-04T06:32:13;24.85;;;6.38;;
20251;SDS011;10284;58.364;15.550;2022-11-04T06:34:41;18.67;;;6.40;;
20251;SDS011;10284;58.364;15.550;2022-11-04T06:37:06;18.77;;;6.05;;
20251;SDS011;10284;58.364;15.550;2022-11-04T06:39:32;17.73;;;5.82;;
20251;SDS011;10284;58.364;15.550;2022-11-04T06:41:57;17.27;;;5.70;;
20251;SDS011;10284;58.364;15.550;2022-11-04T06:44:23;17.63;;;5.97;;
20251;SDS011;10284;58.364;15.550;2022-11-04T06:46:48;21.17;;;6.30;;
20251;SDS011;10284;58.364;15.550;2022-11-04T06:49:15;18.38;;;5.93;;
20251;SDS011;10284;58.364;15.550;2022-11-04T06:51:42;18.88;;;5.90;;
20251;SDS011;10284;58.364;15.550;2022-11-04T06:54:07;17.23;;;5.90;;
20251;SDS011;10284;58.364;15.550;2022-11-04T06:56:33;21.42;;;5.78;;
20251;SDS011;10284;58.364;15.550;2022-11-04T06:58:58;12.43;;;5.32;;
20251;SDS011;10284;58.364;15.550;2022-11-04T07:01:25;16.85;;;5.45;;
20251;SDS011;10284;58.364;15.550;2022-11-04T07:03:52;15.80;;;5.35;;
20251;SDS011;10284;58.364;15.550;2022-11-04T07:06:21;15.93;;;5.00;;
20251;SDS011;10284;58.364;15.550;2022-11-04T07:08:47;12.55;;;5.22;;
20251;SDS011;10284;58.364;15.550;2022-11-04T07:11:13;15.45;;;5.75;;
20251;SDS011;10284;58.364;15.550;2022-11-04T07:13:39;19.70;;;4.75;;
20251;SDS011;10284;58.364;15.550;2022-11-04T07:16:08;13.45;;;5.00;;
20251;SDS011;10284;58.364;15.550;2022-11-04T07:18:34;16.52;;;5.32;;
20251;SDS011;10284;58.364;15.550;2022-11-04T07:21:00;15.85;;;5.45;;
20251;SDS011;10284;58.364;15.550;2022-11-04T07:23:26;18.77;;;4.93;;
20251;SDS011;10284;58.364;15.550;2022-11-04T07:25:51;12.13;;;4.65;;
20251;SDS011;10284;58.364;15.550;2022-11-04T07:28:21;15.07;;;4.75;;
20251;SDS011;10284;58.364;15.550;2022-11-04T07:30:46;12.60;;;4.90;;
20251;SDS011;10284;58.364;15.550;2022-11-04T07:33:12;10.80;;;4.40;;
20251;SDS011;10284;58.364;15.550;2022-11-04T07:35:37;9.68;;;4.03;;
20251;SDS011;10284;58.364;15.550;2022-11-04T07:38:03;18.95;;;5.20;;
20251;SDS011;10284;58.364;15.550;2022-11-04T07:40:29;13.95;;;4.10;;
20251;SDS011;10284;58.364;15.550;2022-11-04T07:42:55;15.82;;;4.72;;
20251;SDS011;10284;58.364;15.550;2022-11-04T07:45:20;10.88;;;3.70;;
20251;SDS011;10284;58.364;15.550;2022-11-04T07:47:46;9.57;;;3.58;;
20251;SDS011;10284;58.364;15.550;2022-11-04T07:50:11;10.55;;;4.20;;
20251;SDS011;10284;58.364;15.550;2022-11-04T07:52:37;14.70;;;4.68;;
20251;SDS011;10284;58.364;15.550;2022-11-04T07:55:03;11.95;;;4.57;;
20251;SDS011;10284;58.364;15.550;2022-11-04T07:57:28;11.30;;;3.78;;
20251;SDS011;10284;58.364;15.550;2022-11-04T07:59:53;13.32;;;4.60;;
20251;SDS011;10284;58.364;15.550;2022-11-04T08:02:19;14.65;;;4.40;;
20251;SDS011;10284;58.364;15.550;2022-11-04T08:04:44;9.00;;;4.32;;
20251;SDS011;10284;58.364;15.550;2022-11-04T08:07:10;11.00;;;4.00;;
20251;SDS011;10284;58.364;15.550;2022-11-04T08:09:35;8.30;;;4.22;;
20251;SDS011;10284;58.364;15.550;2022-11-04T08:12:01;11.82;;;4.15;;
20251;SDS011;10284;58.364;15.550;2022-11-04T08:14:28;13.43;;;4.10;;
20251;SDS011;10284;58.364;15.550;2022-11-04T08:16:53;15.27;;;4.30;;
20251;SDS011;10284;58.364;15.550;2022-11-04T08:19:19;10.95;;;4.20;;
20251;SDS011;10284;58.364;15.550;2022-11-04T08:21:44;9.80;;;3.53;;
20251;SDS011;10284;58.364;15.550;2022-11-04T08:24:09;15.75;;;4.40;;
20251;SDS011;10284;58.364;15.550;2022-11-04T08:26:35;16.63;;;6.68;;
20251;SDS011;10284;58.364;15.550;2022-11-04T08:29:00;12.52;;;3.85;;
20251;SDS011;10284;58.364;15.550;2022-11-04T08:31:27;9.98;;;3.92;;
20251;SDS011;10284;58.364;15.550;2022-11-04T08:33:54;8.05;;;3.53;;
20251;SDS011;10284;58.364;15.550;2022-11-04T08:36:22;10.70;;;4.05;;
20251;SDS011;10284;58.364;15.550;2022-11-04T08:38:49;12.60;;;4.00;;
20251;SDS011;10284;58.364;15.550;2022-11-04T08:41:16;14.13;;;4.18;;
20251;SDS011;10284;58.364;15.550;2022-11-04T08:43:44;10.48;;;4.00;;
20251;SDS011;10284;58.364;15.550;2022-11-04T08:46:10;21.80;;;4.53;;
20251;SDS011;10284;58.364;15.550;2022-11-04T08:48:36;10.73;;;4.50;;
20251;SDS011;10284;58.364;15.550;2022-11-04T08:51:02;9.27;;;4.20;;
20251;SDS011;10284;58.364;15.550;2022-11-04T08:53:29;13.43;;;3.90;;
20251;SDS011;10284;58.364;15.550;2022-11-04T08:55:54;10.68;;;4.43;;
20251;SDS011;10284;58.364;15.550;2022-11-04T08:58:20;12.68;;;3.47;;
20251;SDS011;10284;58.364;15.550;2022-11-04T09:00:46;11.75;;;4.07;;
20251;SDS011;10284;58.364;15.550;2022-11-04T09:03:11;12.10;;;4.00;;
20251;SDS011;10284;58.364;15.550;2022-11-04T09:05:38;9.60;;;3.63;;
20251;SDS011;10284;58.364;15.550;2022-11-04T09:08:09;9.13;;;3.15;;
20251;SDS011;10284;58.364;15.550;2022-11-04T09:10:35;11.13;;;3.28;;
20251;SDS011;10284;58.364;15.550;2022-11-04T09:13:05;13.40;;;3.72;;
20251;SDS011;10284;58.364;15.550;2022-11-04T09:15:31;7.80;;;3.20;;
20251;SDS011;10284;58.364;15.550;2022-11-04T09:17:57;11.80;;;3.17;;
20251;SDS011;10284;58.364;15.550;2022-11-04T09:20:22;12.35;;;3.28;;
20251;SDS011;10284;58.364;15.550;2022-11-04T09:22:48;6.60;;;3.08;;
20251;SDS011;10284;58.364;15.550;2022-11-04T09:25:14;9.45;;;2.90;;
20251;SDS011;10284;58.364;15.550;2022-11-04T09:27:40;12.48;;;3.25;;
20251;SDS011;10284;58.364;15.550;2022-11-04T09:30:05;11.15;;;3.05;;
20251;SDS011;10284;58.364;15.550;2022-11-04T09:32:31;10.40;;;3.08;;
20251;SDS011;10284;58.364;15.550;2022-11-04T09:34:57;12.13;;;3.22;;
20251;SDS011;10284;58.364;15.550;2022-11-04T09:37:22;10.52;;;2.65;;
20251;SDS011;10284;58.364;15.550;2022-11-04T09:39:47;10.68;;;3.00;;
20251;SDS011;10284;58.364;15.550;2022-11-04T09:47:29;14.75;;;3.58;;
20251;SDS011;10284;58.364;15.550;2022-11-04T09:49:56;9.10;;;2.47;;
20251;SDS011;10284;58.364;15.550;2022-11-04T09:52:38;10.15;;;2.63;;
20251;SDS011;10284;58.364;15.550;2022-11-04T09:57:38;13.18;;;2.78;;
20251;SDS011;10284;58.364;15.550;2022-11-04T10:00:04;8.15;;;2.65;;
20251;SDS011;10284;58.364;15.550;2022-11-04T10:10:42;10.13;;;2.40;;
20251;SDS011;10284;58.364;15.550;2022-11-04T10:13:19;8.65;;;2.22;;
20251;SDS011;10284;58.364;15.550;2022-11-04T10:24:06;8.25;;;2.50;;
20251;SDS011;10284;58.364;15.550;2022-11-04T10:26:52;9.20;;;1.92;;
20251;SDS011;10284;58.364;15.550;2022-11-04T10:29:39;14.75;;;2.58;;
20251;SDS011;10284;58.364;15.550;2022-11-04T10:37:57;8.10;;;2.38;;
20251;SDS011;10284;58.364;15.550;2022-11-04T10:40:35;8.90;;;2.40;;
20251;SDS011;10284;58.364;15.550;2022-11-04T10:43:03;11.63;;;2.92;;
20251;SDS011;10284;58.364;15.550;2022-11-04T10:45:33;8.50;;;2.85;;
20251;SDS011;10284;58.364;15.550;2022-11-04T10:48:08;9.52;;;2.50;;
20251;SDS011;10284;58.364;15.550;2022-11-04T10:50:39;8.68;;;2.28;;
20251;SDS011;10284;58.364;15.550;2022-11-04T10:53:14;7.50;;;2.05;;
20251;SDS011;10284;58.364;15.550;2022-11-04T10:58:36;8.98;;;2.38;;
20251;SDS011;10284;58.364;15.550;2022-11-04T11:03:46;7.25;;;2.47;;
20251;SDS011;10284;58.364;15.550;2022-11-04T11:06:27;8.63;;;2.58;;
20251;SDS011;10284;58.364;15.550;2022-11-04T11:08:56;10.35;;;2.78;;
20251;SDS011;10284;58.364;15.550;2022-11-04T11:11:39;7.03;;;2.45;;
20251;SDS011;10284;58.364;15.550;2022-11-04T11:16:53;9.75;;;2.72;;
20251;SDS011;10284;58.364;15.550;2022-11-04T11:19:57;10.80;;;2.33;;
20251;SDS011;10284;58.364;15.550;2022-11-04T11:22:32;6.82;;;2.38;;
20251;SDS011;10284;58.364;15.550;2022-11-04T11:27:46;12.32;;;2.28;;
20251;SDS011;10284;58.364;15.550;2022-11-04T11:32:45;10.35;;;2.90;;
20251;SDS011;10284;58.364;15.550;2022-11-04T11:35:16;8.98;;;2.85;;
20251;SDS011;10284;58.364;15.550;2022-11-04T11:37:46;9.93;;;3.05;;
20251;SDS011;10284;58.364;15.550;2022-11-04T11:43:06;11.27;;;2.67;;
20251;SDS011;10284;58.364;15.550;2022-11-04T11:45:32;9.75;;;3.33;;
20251;SDS011;10284;58.364;15.550;2022-11-04T11:47:57;9.13;;;2.53;;
20251;SDS011;10284;58.364;15.550;2022-11-04T11:50:24;12.52;;;3.15;;
20251;SDS011;10284;58.364;15.550;2022-11-04T11:53:32;13.75;;;3.30;;
20251;SDS011;10284;58.364;15.550;2022-11-04T12:00:53;10.75;;;2.60;;
20251;SDS011;10284;58.364;15.550;2022-11-04T12:03:42;12.15;;;3.38;;
20251;SDS011;10284;58.364;15.550;2022-11-04T12:17:33;9.48;;;2.28;;
20251;SDS011;10284;58.364;15.550;2022-11-04T12:22:42;8.35;;;2.92;;
20251;SDS011;10284;58.364;15.550;2022-11-04T12:25:44;8.63;;;2.25;;
20251;SDS011;10284;58.364;15.550;2022-11-04T12:31:07;9.73;;;2.45;;
20251;SDS011;10284;58.364;15.550;2022-11-04T12:33:58;7.10;;;2.50;;
20251;SDS011;10284;58.364;15.550;2022-11-04T12:39:56;9.48;;;2.35;;
20251;SDS011;10284;58.364;15.550;2022-11-04T12:45:45;6.88;;;2.08;;
20251;SDS011;10284;58.364;15.550;2022-11-04T12:48:37;11.10;;;2.40;;
20251;SDS011;10284;58.364;15.550;2022-11-04T12:51:36;10.00;;;2.53;;
20251;SDS011;10284;58.364;15.550;2022-11-04T13:00:12;7.55;;;2.40;;
20251;SDS011;10284;58.364;15.550;2022-11-04T13:02:46;7.80;;;2.47;;
20251;SDS011;10284;58.364;15.550;2022-11-04T13:07:48;9.88;;;2.92;;
20251;SDS011;10284;58.364;15.550;2022-11-04T13:10:22;10.40;;;2.50;;
20251;SDS011;10284;58.364;15.550;2022-11-04T13:12:51;8.88;;;2.58;;
20251;SDS011;10284;58.364;15.550;2022-11-04T13:15:22;7.85;;;2.22;;
20251;SDS011;10284;58.364;15.550;2022-11-04T13:17:50;6.65;;;2.08;;
20251;SDS011;10284;58.364;15.550;2022-11-04T13:22:56;10.90;;;2.85;;
20251;SDS011;10284;58.364;15.550;2022-11-04T13:27:54;13.15;;;2.80;;
20251;SDS011;10284;58.364;15.550;2022-11-04T13:30:35;8.43;;;2.60;;
20251;SDS011;10284;58.364;15.550;2022-11-04T13:39:14;5.25;;;2.20;;
20251;SDS011;10284;58.364;15.550;2022-11-04T13:44:24;6.95;;;2.28;;
20251;SDS011;10284;58.364;15.550;2022-11-04T13:46:56;10.20;;;2.83;;
20251;SDS011;10284;58.364;15.550;2022-11-04T13:49:23;7.82;;;2.33;;
20251;SDS011;10284;58.364;15.550;2022-11-04T13:52:02;8.25;;;2.95;;
20251;SDS011;10284;58.364;15.550;2022-11-04T13:57:04;10.77;;;3.03;;
20251;SDS011;10284;58.364;15.550;2022-11-04T13:59:32;11.48;;;2.55;;
20251;SDS011;10284;58.364;15.550;2022-11-04T14:04:38;9.60;;;2.72;;
20251;SDS011;10284;58.364;15.550;2022-11-04T14:07:05;10.30;;;3.10;;
20251;SDS011;10284;58.364;15.550;2022-11-04T14:09:36;8.77;;;2.63;;
20251;SDS011;10284;58.364;15.550;2022-11-04T14:25:22;7.45;;;2.42;;
20251;SDS011;10284;58.364;15.550;2022-11-04T14:28:00;11.20;;;3.30;;
20251;SDS011;10284;58.364;15.550;2022-11-04T14:30:37;11.25;;;3.60;;
20251;SDS011;10284;58.364;15.550;2022-11-04T14:33:07;11.30;;;2.80;;
20251;SDS011;10284;58.364;15.550;2022-11-04T14:35:44;7.32;;;2.67;;
20251;SDS011;10284;58.364;15.550;2022-11-04T14:38:31;7.30;;;2.75;;
20251;SDS011;10284;58.364;15.550;2022-11-04T14:43:36;9.90;;;2.88;;
20251;SDS011;10284;58.364;15.550;2022-11-04T14:46:08;11.52;;;3.58;;
20251;SDS011;10284;58.364;15.550;2022-11-04T14:48:35;10.52;;;3.20;;
20251;SDS011;10284;58.364;15.550;2022-11-04T14:51:19;6.97;;;2.88;;
20251;SDS011;10284;58.364;15.550;2022-11-04T14:53:49;9.52;;;2.80;;
20251;SDS011;10284;58.364;15.550;2022-11-04T14:56:20;10.68;;;3.17;;
20251;SDS011;10284;58.364;15.550;2022-11-04T14:58:54;9.30;;;2.95;;
20251;SDS011;10284;58.364;15.550;2022-11-04T15:01:23;8.13;;;2.83;;
20251;SDS011;10284;58.364;15.550;2022-11-04T15:03:51;9.35;;;3.50;;
20251;SDS011;10284;58.364;15.550;2022-11-04T15:06:24;13.13;;;3.03;;
20251;SDS011;10284;58.364;15.550;2022-11-04T15:08:52;12.48;;;3.20;;
20251;SDS011;10284;58.364;15.550;2022-11-04T15:11:22;12.02;;;4.10;;
20251;SDS011;10284;58.364;15.550;2022-11-04T15:14:12;11.55;;;2.95;;
20251;SDS011;10284;58.364;15.550;2022-11-04T15:16:39;12.85;;;3.40;;
20251;SDS011;10284;58.364;15.550;2022-11-04T15:19:06;8.32;;;3.25;;
20251;SDS011;10284;58.364;15.550;2022-11-04T15:21:36;13.32;;;3.30;;
20251;SDS011;10284;58.364;15.550;2022-11-04T15:24:03;16.52;;;3.33;;
20251;SDS011;10284;58.364;15.550;2022-11-04T15:26:29;12.55;;;3.40;;
20251;SDS011;10284;58.364;15.550;2022-11-04T15:28:56;11.10;;;3.28;;
20251;SDS011;10284;58.364;15.550;2022-11-04T15:31:24;11.68;;;3.30;;
20251;SDS011;10284;58.364;15.550;2022-11-04T15:33:52;5.53;;;2.70;;
20251;SDS011;10284;58.364;15.550;2022-11-04T15:36:27;10.75;;;3.45;;
20251;SDS011;10284;58.364;15.550;2022-11-04T15:38:55;15.35;;;3.70;;
20251;SDS011;10284;58.364;15.550;2022-11-04T15:41:22;9.52;;;3.65;;
20251;SDS011;10284;58.364;15.550;2022-11-04T15:44:43;10.02;;;4.05;;
20251;SDS011;10284;58.364;15.550;2022-11-04T15:47:00;14.30;;;3.45;;
20251;SDS011;10284;58.364;15.550;2022-11-04T15:49:29;10.38;;;3.33;;
20251;SDS011;10284;58.364;15.550;2022-11-04T15:52:06;9.05;;;3.45;;
20251;SDS011;10284;58.364;15.550;2022-11-04T15:54:36;9.68;;;3.55;;
20251;SDS011;10284;58.364;15.550;2022-11-04T15:57:10;10.00;;;3.38;;
20251;SDS011;10284;58.364;15.550;2022-11-04T16:02:21;8.93;;;3.50;;
20251;SDS011;10284;58.364;15.550;2022-11-04T16:05:05;10.55;;;3.35;;
20251;SDS011;10284;58.364;15.550;2022-11-04T16:07:42;13.90;;;3.83;;
20251;SDS011;10284;58.364;15.550;2022-11-04T16:12:57;10.00;;;3.70;;
20251;SDS011;10284;58.364;15.550;2022-11-04T16:18:05;11.15;;;3.50;;
20251;SDS011;10284;58.364;15.550;2022-11-04T16:20:36;13.45;;;4.03;;
20251;SDS011;10284;58.364;15.550;2022-11-04T16:23:01;9.13;;;2.90;;
20251;SDS011;10284;58.364;15.550;2022-11-04T16:25:29;12.30;;;3.20;;
20251;SDS011;10284;58.364;15.550;2022-11-04T16:27:58;9.82;;;3.42;;
20251;SDS011;10284;58.364;15.550;2022-11-04T16:30:23;10.65;;;3.13;;
20251;SDS011;10284;58.364;15.550;2022-11-04T16:32:53;12.23;;;3.70;;
20251;SDS011;10284;58.364;15.550;2022-11-04T16:35:23;9.40;;;3.50;;
20251;SDS011;10284;58.364;15.550;2022-11-04T16:37:50;12.75;;;3.60;;
20251;SDS011;10284;58.364;15.550;2022-11-04T16:40:17;11.30;;;3.60;;
20251;SDS011;10284;58.364;15.550;2022-11-04T16:42:43;12.70;;;3.97;;
20251;SDS011;10284;58.364;15.550;2022-11-04T16:45:17;9.43;;;3.30;;
20251;SDS011;10284;58.364;15.550;2022-11-04T16:47:46;11.45;;;3.53;;
20251;SDS011;10284;58.364;15.550;2022-11-04T16:50:12;14.02;;;3.60;;
20251;SDS011;10284;58.364;15.550;2022-11-04T16:52:42;11.23;;;3.83;;
20251;SDS011;10284;58.364;15.550;2022-11-04T16:55:07;11.02;;;3.70;;
20251;SDS011;10284;58.364;15.550;2022-11-04T16:57:33;14.68;;;3.88;;
20251;SDS011;10284;58.364;15.550;2022-11-04T16:59:59;10.55;;;3.53;;
20251;SDS011;10284;58.364;15.550;2022-11-04T17:02:28;9.57;;;3.22;;
20251;SDS011;10284;58.364;15.550;2022-11-04T17:04:55;10.20;;;3.10;;
20251;SDS011;10284;58.364;15.550;2022-11-04T17:07:20;10.70;;;3.75;;
20251;SDS011;10284;58.364;15.550;2022-11-04T17:09:46;10.40;;;4.18;;
20251;SDS011;10284;58.364;15.550;2022-11-04T17:12:12;12.18;;;3.15;;
20251;SDS011;10284;58.364;15.550;2022-11-04T17:14:38;9.75;;;3.45;;
20251;SDS011;10284;58.364;15.550;2022-11-04T17:17:04;10.40;;;3.03;;
20251;SDS011;10284;58.364;15.550;2022-11-04T17:19:30;11.82;;;3.83;;
20251;SDS011;10284;58.364;15.550;2022-11-04T17:21:56;11.80;;;3.63;;
20251;SDS011;10284;58.364;15.550;2022-11-04T17:24:23;6.63;;;2.92;;
20251;SDS011;10284;58.364;15.550;2022-11-04T17:26:48;13.57;;;3.85;;